createdAt,value
2022-11-10T00:02:14.970Z,43.00
2022-11-10T00:04:41.732Z,42.61
2022-11-10T00:07:08.544Z,42.49
2022-11-10T00:09:35.466Z,42.23
2022-11-10T00:12:02.229Z,41.94
2022-11-10T00:14:47.855Z,41.99
2022-11-10T00:17:14.611Z,41.89
2022-11-10T00:19:41.347Z,41.70
2022-11-10T00:22:08.124Z,41.64
2022-11-10T00:24:34.888Z,41.41
2022-11-10T00:27:02.215Z,43.94
2022-11-10T00:29:29.022Z,44.61
2022-11-10T00:31:55.767Z,46.70
2022-11-10T00:34:22.553Z,48.54
2022-11-10T00:36:49.330Z,45.53
2022-11-10T00:39:16.095Z,43.92
2022-11-10T00:41:42.849Z,43.08
2022-11-10T00:44:09.678Z,42.78
2022-11-10T00:46:36.445Z,42.70
2022-11-10T00:49:03.311Z,42.47
2022-11-10T00:51:30.192Z,42.03
2022-11-10T00:53:57.007Z,41.63
2022-11-10T00:56:23.776Z,41.63
2022-11-10T00:58:50.564Z,41.74
2022-11-10T01:01:17.488Z,41.31
2022-11-10T01:03:44.351Z,41.53
2022-11-10T01:06:11.152Z,41.17
2022-11-10T01:08:37.901Z,42.91
2022-11-10T01:11:04.655Z,44.46
2022-11-10T01:13:31.506Z,44.17
2022-11-10T01:15:58.281Z,48.15
2022-11-10T01:18:25.045Z,45.95
2022-11-10T01:20:51.836Z,43.72
2022-11-10T01:23:18.674Z,42.84
2022-11-10T01:25:45.500Z,42.55
2022-11-10T01:28:12.264Z,42.48
2022-11-10T01:30:39.020Z,42.19
2022-11-10T01:33:05.782Z,41.89
2022-11-10T01:35:32.531Z,41.68
2022-11-10T01:37:59.292Z,41.66
2022-11-10T01:40:26.112Z,41.43
2022-11-10T01:42:52.925Z,41.57
2022-11-10T01:45:19.685Z,41.18
2022-11-10T01:47:46.432Z,41.40
2022-11-10T01:50:13.200Z,41.01
2022-11-10T01:52:39.949Z,43.67
2022-11-10T01:55:06.768Z,44.27
2022-11-10T01:57:33.562Z,46.17
2022-11-10T02:00:00.349Z,46.54
2022-11-10T02:02:27.110Z,44.53
2022-11-10T02:04:53.901Z,43.41
2022-11-10T02:07:20.648Z,42.71
2022-11-10T02:09:47.396Z,41.94
2022-11-10T02:12:14.154Z,41.87
2022-11-10T02:14:40.925Z,41.81
2022-11-10T02:17:07.716Z,41.26
2022-11-10T02:19:34.509Z,41.37
2022-11-10T02:22:01.282Z,41.52
2022-11-10T02:24:28.036Z,41.18
2022-11-10T02:26:54.876Z,41.04
2022-11-10T02:29:21.633Z,41.68
2022-11-10T02:31:48.459Z,44.37
2022-11-10T02:34:15.254Z,43.41
2022-11-10T02:36:42.064Z,47.70
2022-11-10T02:39:08.828Z,46.07
2022-11-10T02:41:35.586Z,44.19
2022-11-10T02:44:02.341Z,42.36
2022-11-10T02:46:29.097Z,42.26
2022-11-10T02:48:55.899Z,42.12
2022-11-10T02:51:22.646Z,41.66
2022-11-10T02:53:50.057Z,41.45
2022-11-10T02:56:16.843Z,41.56
2022-11-10T02:58:43.597Z,41.16
2022-11-10T03:01:10.475Z,41.19
2022-11-10T03:03:37.445Z,40.91
2022-11-10T03:06:04.248Z,41.05
2022-11-10T03:08:30.988Z,40.73
2022-11-10T03:10:57.788Z,43.67
2022-11-10T03:13:24.897Z,43.95
2022-11-10T03:15:51.920Z,45.81
2022-11-10T03:18:18.694Z,46.71
2022-11-10T03:20:45.447Z,44.23
2022-11-10T03:23:12.197Z,42.61
2022-11-10T03:25:39.022Z,42.25
2022-11-10T03:28:05.804Z,42.08
2022-11-10T03:30:32.556Z,41.81
2022-11-10T03:32:59.326Z,41.55
2022-11-10T03:35:26.117Z,41.21
2022-11-10T03:37:52.875Z,41.24
2022-11-10T03:40:19.651Z,40.61
2022-11-10T03:42:46.404Z,40.56
2022-11-10T03:45:13.151Z,40.97
2022-11-10T03:47:39.986Z,41.15
2022-11-10T03:50:06.720Z,40.98
2022-11-10T03:52:33.539Z,42.06
2022-11-10T03:55:03.301Z,43.99
2022-11-10T03:57:30.482Z,44.42
2022-11-10T03:59:57.237Z,47.11
2022-11-10T04:02:24.020Z,45.41
2022-11-10T04:05:09.565Z,43.11
2022-11-10T04:07:54.884Z,42.31
2022-11-10T04:10:21.716Z,41.78
2022-11-10T04:13:07.218Z,41.84
2022-11-10T04:15:42.800Z,41.46
2022-11-10T04:18:21.634Z,41.45
2022-11-10T04:20:48.392Z,40.83
2022-11-10T04:23:27.459Z,41.04
2022-11-10T04:26:13.113Z,40.74
2022-11-10T04:28:39.886Z,40.68
2022-11-10T04:31:06.704Z,44.02
2022-11-10T04:33:33.514Z,44.97
2022-11-10T04:36:00.294Z,48.16
2022-11-10T04:38:27.049Z,44.28
2022-11-10T04:40:53.816Z,42.59
2022-11-10T04:43:20.991Z,41.62
2022-11-10T04:45:48.032Z,41.36
2022-11-10T04:48:14.822Z,41.44
2022-11-10T04:50:41.630Z,41.23
2022-11-10T04:53:08.373Z,40.84
2022-11-10T04:55:35.116Z,41.04
2022-11-10T04:58:01.947Z,40.90
2022-11-10T05:00:28.771Z,40.71
2022-11-10T05:02:55.551Z,40.54
2022-11-10T05:05:22.313Z,40.26
2022-11-10T05:07:49.094Z,43.50
2022-11-10T05:10:15.901Z,43.50
2022-11-10T05:12:42.653Z,46.88
2022-11-10T05:15:09.395Z,47.06
2022-11-10T05:17:36.147Z,43.77
2022-11-10T05:20:03.399Z,42.93
2022-11-10T05:22:30.158Z,42.35
2022-11-10T05:24:56.961Z,41.69
2022-11-10T05:27:23.766Z,41.28
2022-11-10T05:29:50.522Z,41.26
2022-11-10T05:32:17.288Z,41.07
2022-11-10T05:34:44.045Z,40.84
2022-11-10T05:37:10.792Z,40.69
2022-11-10T05:39:37.545Z,40.87
2022-11-10T05:42:04.371Z,40.43
2022-11-10T05:44:31.144Z,40.38
2022-11-10T05:46:57.980Z,40.31
2022-11-10T05:49:24.748Z,40.28
2022-11-10T05:51:51.509Z,43.49
2022-11-10T05:54:18.255Z,44.32
2022-11-10T05:56:45.824Z,47.68
2022-11-10T05:59:12.589Z,45.97
2022-11-10T06:01:39.334Z,43.24
2022-11-10T06:04:06.212Z,42.15
2022-11-10T06:06:33.015Z,41.83
2022-11-10T06:08:59.855Z,41.30
2022-11-10T06:11:26.722Z,41.07
2022-11-10T06:13:53.504Z,41.25
2022-11-10T06:16:20.257Z,41.07
2022-11-10T06:18:47.033Z,40.71
2022-11-10T06:21:13.876Z,39.75
2022-11-10T06:23:40.711Z,40.19
2022-11-10T06:26:07.502Z,40.05
2022-11-10T06:28:34.376Z,40.29
2022-11-10T06:31:01.282Z,40.54
2022-11-10T06:33:28.079Z,44.28
2022-11-10T06:35:55.128Z,46.73
2022-11-10T06:38:21.896Z,45.68
2022-11-10T06:40:48.657Z,42.70
2022-11-10T06:43:15.441Z,41.92
2022-11-10T06:45:42.193Z,41.37
2022-11-10T06:48:08.972Z,41.37
2022-11-10T06:50:35.914Z,41.14
2022-11-10T06:53:02.657Z,40.54
2022-11-10T06:55:29.443Z,40.44
2022-11-10T06:57:56.224Z,40.12
2022-11-10T07:00:23.047Z,39.97
2022-11-10T07:02:49.862Z,39.93
2022-11-10T07:05:16.693Z,39.79
2022-11-10T07:07:43.465Z,40.85
2022-11-10T07:10:10.243Z,43.81
2022-11-10T07:12:37.044Z,46.44
2022-11-10T07:15:03.817Z,45.30
2022-11-10T07:17:30.575Z,43.02
2022-11-10T07:19:57.325Z,41.54
2022-11-10T07:22:24.857Z,41.26
2022-11-10T07:24:51.679Z,40.70
2022-11-10T07:27:18.433Z,40.39
2022-11-10T07:29:45.368Z,40.65
2022-11-10T07:32:12.265Z,40.30
2022-11-10T07:34:39.179Z,40.43
2022-11-10T07:37:05.942Z,40.22
2022-11-10T07:39:32.709Z,39.90
2022-11-10T07:41:59.570Z,39.43
2022-11-10T07:44:27.668Z,40.66
2022-11-10T07:46:54.499Z,43.52
2022-11-10T07:49:21.261Z,42.42
2022-11-10T07:51:48.020Z,45.85
2022-11-10T07:54:15.277Z,43.97
2022-11-10T07:56:42.402Z,42.22
2022-11-10T07:59:09.260Z,41.19
2022-11-10T08:01:36.186Z,40.90
2022-11-10T08:04:03.018Z,40.93
2022-11-10T08:06:34.902Z,40.25
2022-11-10T08:09:02.855Z,40.70
2022-11-10T08:11:29.669Z,40.09
2022-11-10T08:13:56.416Z,39.90
2022-11-10T08:16:23.191Z,39.94
2022-11-10T08:18:50.043Z,39.77
2022-11-10T08:21:16.832Z,39.49
2022-11-10T08:23:44.674Z,39.89
2022-11-10T08:26:11.431Z,44.09
2022-11-10T08:28:38.306Z,46.82
2022-11-10T08:31:06.214Z,44.61
2022-11-10T08:33:33.285Z,42.49
2022-11-10T08:36:00.077Z,41.12
2022-11-10T08:38:26.872Z,40.67
2022-11-10T08:40:53.630Z,40.55
2022-11-10T08:43:20.742Z,40.14
2022-11-10T08:45:47.789Z,40.26
2022-11-10T08:48:14.607Z,39.87
2022-11-10T08:50:41.420Z,39.81
2022-11-10T08:53:08.250Z,39.57
2022-11-10T08:55:35.025Z,39.88
2022-11-10T08:58:01.781Z,42.79
2022-11-10T09:00:28.714Z,42.85
2022-11-10T09:02:56.052Z,46.27
2022-11-10T09:05:22.812Z,44.78
2022-11-10T09:07:49.814Z,42.80
2022-11-10T09:10:16.612Z,41.56
2022-11-10T09:12:43.450Z,40.79
2022-11-10T09:15:10.266Z,40.44
2022-11-10T09:17:37.087Z,40.26
2022-11-10T09:20:03.872Z,40.41
2022-11-10T09:22:30.697Z,40.22
2022-11-10T09:24:57.657Z,39.92
2022-11-10T09:27:24.455Z,39.68
2022-11-10T09:29:51.220Z,39.09
2022-11-10T09:32:18.125Z,39.93
2022-11-10T09:34:48.952Z,39.82
2022-11-10T09:37:19.576Z,43.21
2022-11-10T09:39:46.323Z,46.24
2022-11-10T09:42:13.061Z,46.20
2022-11-10T09:44:39.879Z,42.28
2022-11-10T09:47:06.655Z,41.00
2022-11-10T09:49:33.480Z,40.41
2022-11-10T09:52:00.285Z,40.17
2022-11-10T09:54:27.050Z,40.39
2022-11-10T09:56:55.864Z,39.95
2022-11-10T09:59:22.635Z,39.78
2022-11-10T10:01:49.546Z,39.65
2022-11-10T10:04:16.344Z,39.80
2022-11-10T10:07:04.847Z,39.62
2022-11-10T10:09:29.840Z,44.23
2022-11-10T10:11:56.626Z,47.10
2022-11-10T10:14:23.380Z,44.35
2022-11-10T10:16:50.249Z,41.66
2022-11-10T10:19:17.024Z,40.58
2022-11-10T10:21:43.790Z,40.41
2022-11-10T10:24:15.160Z,39.99
2022-11-10T10:26:46.836Z,39.95
2022-11-10T10:29:13.600Z,39.98
2022-11-10T10:31:40.368Z,39.63
2022-11-10T10:34:07.123Z,39.57
2022-11-10T10:36:33.859Z,39.58
2022-11-10T10:39:00.939Z,44.12
2022-11-10T10:41:27.743Z,47.00
2022-11-10T10:43:54.553Z,44.69
2022-11-10T10:46:27.654Z,41.22
2022-11-10T10:49:22.177Z,40.44
2022-11-10T10:51:42.964Z,40.61
2022-11-10T10:54:09.744Z,39.83
2022-11-10T10:56:36.493Z,39.50
2022-11-10T10:59:03.238Z,40.08
2022-11-10T11:01:30.457Z,39.58
2022-11-10T11:03:57.399Z,39.85
2022-11-10T11:06:26.640Z,39.38
2022-11-10T11:08:58.230Z,44.08
2022-11-10T11:11:26.170Z,46.84
2022-11-10T11:13:52.970Z,44.01
2022-11-10T11:16:19.896Z,41.61
2022-11-10T11:18:46.657Z,40.50
2022-11-10T11:21:13.402Z,40.62
2022-11-10T11:23:40.168Z,40.38
2022-11-10T11:26:06.920Z,40.12
2022-11-10T11:28:33.708Z,40.14
2022-11-10T11:31:00.530Z,39.66
2022-11-10T11:33:28.975Z,42.60
2022-11-10T11:35:55.711Z,46.67
2022-11-10T11:38:22.779Z,46.42
2022-11-10T11:40:49.791Z,42.17
2022-11-10T11:43:16.551Z,40.61
2022-11-10T11:45:43.626Z,40.25
2022-11-10T11:48:10.427Z,40.61
2022-11-10T11:50:37.180Z,40.29
2022-11-10T11:53:03.961Z,39.57
2022-11-10T11:55:31.220Z,40.15
2022-11-10T11:57:58.106Z,40.20
2022-11-10T12:00:24.890Z,39.89
2022-11-10T12:02:53.459Z,39.71
2022-11-10T12:05:20.303Z,41.18
2022-11-10T12:07:47.077Z,45.75
2022-11-10T12:10:13.928Z,46.46
2022-11-10T12:12:40.769Z,43.12
2022-11-10T12:15:07.695Z,41.27
2022-11-10T12:17:34.472Z,40.67
2022-11-10T12:20:01.235Z,40.30
2022-11-10T12:22:27.998Z,40.08
2022-11-10T12:24:54.812Z,40.16
2022-11-10T12:27:21.556Z,40.09
2022-11-10T12:29:48.325Z,39.56
2022-11-10T12:32:15.081Z,41.15
2022-11-10T12:34:43.741Z,45.65
2022-11-10T12:37:10.504Z,47.12
2022-11-10T12:39:37.249Z,43.11
2022-11-10T12:42:04.078Z,41.17
2022-11-10T12:44:30.864Z,40.62
2022-11-10T12:46:57.620Z,40.20
2022-11-10T12:49:24.389Z,40.27
2022-11-10T12:51:51.206Z,40.25
2022-11-10T12:54:17.998Z,39.95
2022-11-10T12:56:44.925Z,39.84
2022-11-10T12:59:11.737Z,39.96
2022-11-10T13:01:38.542Z,40.12
2022-11-10T13:04:05.319Z,43.16
2022-11-10T13:06:32.144Z,46.72
2022-11-10T13:08:58.968Z,45.47
2022-11-10T13:11:25.755Z,42.16
2022-11-10T13:13:58.175Z,40.74
2022-11-10T13:16:26.285Z,40.08
2022-11-10T13:18:53.067Z,40.29
2022-11-10T13:21:19.821Z,40.30
2022-11-10T13:23:46.568Z,40.03
2022-11-10T13:26:13.325Z,39.63
2022-11-10T13:28:40.085Z,40.26
2022-11-10T13:31:06.886Z,45.66
2022-11-10T13:33:33.908Z,46.70
2022-11-10T13:36:00.664Z,43.01
2022-11-10T13:38:27.416Z,41.26
2022-11-10T13:40:54.246Z,40.75
2022-11-10T13:43:21.064Z,40.47
2022-11-10T13:45:47.834Z,39.78
2022-11-10T13:48:14.631Z,40.41
2022-11-10T13:50:41.483Z,39.99
2022-11-10T13:53:08.255Z,39.71
2022-11-10T13:55:35.027Z,39.61
2022-11-10T13:58:01.779Z,41.52
2022-11-10T14:00:28.591Z,45.57
2022-11-10T14:02:55.587Z,47.12
2022-11-10T14:05:22.368Z,43.08
2022-11-10T14:07:49.125Z,41.60
2022-11-10T14:10:15.905Z,40.95
2022-11-10T14:12:42.676Z,40.68
2022-11-10T14:15:09.455Z,40.40
2022-11-10T14:17:36.254Z,40.12
2022-11-10T14:20:03.902Z,39.94
2022-11-10T14:22:30.793Z,40.12
2022-11-10T14:24:57.590Z,39.95
2022-11-10T14:27:24.354Z,44.54
2022-11-10T14:29:51.099Z,47.05
2022-11-10T14:32:18.147Z,44.41
2022-11-10T14:34:44.892Z,41.75
2022-11-10T14:37:11.662Z,40.60
2022-11-10T14:39:38.436Z,40.72
2022-11-10T14:42:05.194Z,40.42
2022-11-10T14:44:32.003Z,39.75
2022-11-10T14:46:59.242Z,40.04
2022-11-10T14:49:26.014Z,40.27
2022-11-10T14:51:52.833Z,39.81
2022-11-10T14:54:19.623Z,42.74
2022-11-10T14:56:47.435Z,43.21
2022-11-10T14:59:14.175Z,44.96
2022-11-10T15:01:42.131Z,45.10
2022-11-10T15:04:08.875Z,42.79
2022-11-10T15:06:35.650Z,41.59
2022-11-10T15:09:02.468Z,40.79
2022-11-10T15:11:29.221Z,40.65
2022-11-10T15:13:55.980Z,40.46
2022-11-10T15:16:22.812Z,40.57
2022-11-10T15:18:50.917Z,40.48
2022-11-10T15:21:17.709Z,40.28
2022-11-10T15:23:44.480Z,40.24
2022-11-10T15:26:11.231Z,39.59
2022-11-10T15:28:37.989Z,39.48
2022-11-10T15:31:05.340Z,42.24
2022-11-10T15:33:32.390Z,43.17
2022-11-10T15:35:59.142Z,44.73
2022-11-10T15:38:26.121Z,45.40
2022-11-10T15:40:53.112Z,43.46
2022-11-10T15:43:20.266Z,41.36
2022-11-10T15:45:47.254Z,41.21
2022-11-10T15:48:14.030Z,40.99
2022-11-10T15:50:40.820Z,40.29
2022-11-10T15:53:07.896Z,40.24
2022-11-10T15:55:35.391Z,39.85
2022-11-10T15:58:02.395Z,40.23
2022-11-10T16:00:29.159Z,39.75
2022-11-10T16:02:55.995Z,39.85
2022-11-10T16:05:22.808Z,39.89
2022-11-10T16:07:49.696Z,39.48
2022-11-10T16:10:16.475Z,42.79
2022-11-10T16:12:43.256Z,44.21
2022-11-10T16:15:10.361Z,46.92
2022-11-10T16:17:37.341Z,43.68
2022-11-10T16:20:04.284Z,42.09
2022-11-10T16:22:31.060Z,41.27
2022-11-10T16:24:57.824Z,40.69
2022-11-10T16:27:24.599Z,40.06
2022-11-10T16:29:51.370Z,39.82
2022-11-10T16:32:18.126Z,40.03
2022-11-10T16:34:45.009Z,39.93
2022-11-10T16:37:11.853Z,39.76
2022-11-10T16:39:38.616Z,39.67
2022-11-10T16:42:05.363Z,41.00
2022-11-10T16:44:32.147Z,43.31
2022-11-10T16:46:58.904Z,45.32
2022-11-10T16:49:25.719Z,46.17
2022-11-10T16:51:52.535Z,43.08
2022-11-10T16:54:19.342Z,41.90
2022-11-10T16:56:46.106Z,40.90
2022-11-10T16:59:13.514Z,40.34
2022-11-10T17:01:40.317Z,40.21
2022-11-10T17:04:07.208Z,40.10
2022-11-10T17:06:34.070Z,40.44
2022-11-10T17:09:00.903Z,40.15
2022-11-10T17:11:27.659Z,39.62
2022-11-10T17:13:54.437Z,39.84
2022-11-10T17:16:21.199Z,39.67
2022-11-10T17:18:47.952Z,39.71
2022-11-10T17:21:14.731Z,42.14
2022-11-10T17:23:41.510Z,43.29
2022-11-10T17:26:08.319Z,45.64
2022-11-10T17:28:35.092Z,45.46
2022-11-10T17:31:03.140Z,43.09
2022-11-10T17:33:29.916Z,41.39
2022-11-10T17:35:56.690Z,41.30
2022-11-10T17:38:23.454Z,40.14
2022-11-10T17:40:50.224Z,40.17
2022-11-10T17:43:17.006Z,40.14
2022-11-10T17:45:43.803Z,40.07
2022-11-10T17:48:10.561Z,39.84
2022-11-10T17:50:37.344Z,40.04
2022-11-10T17:53:04.129Z,39.38
2022-11-10T17:55:34.194Z,39.81
2022-11-10T17:58:01.331Z,42.11
2022-11-10T18:00:28.075Z,42.98
2022-11-10T18:02:55.522Z,45.95
2022-11-10T18:05:22.367Z,44.87
2022-11-10T18:07:49.138Z,42.83
2022-11-10T18:10:16.091Z,41.90
2022-11-10T18:12:42.889Z,40.94
2022-11-10T18:15:09.671Z,40.82
2022-11-10T18:17:36.534Z,40.33
2022-11-10T18:20:03.508Z,39.93
2022-11-10T18:22:30.286Z,39.70
2022-11-10T18:24:57.103Z,40.03
2022-11-10T18:27:23.862Z,39.56
2022-11-10T18:29:51.429Z,39.62
2022-11-10T18:32:18.383Z,41.04
2022-11-10T18:34:45.353Z,42.98
2022-11-10T18:37:12.163Z,43.15
2022-11-10T18:39:38.910Z,46.67
2022-11-10T18:42:05.685Z,43.91
2022-11-10T18:44:36.798Z,42.19
2022-11-10T18:47:03.826Z,41.29
2022-11-10T18:49:30.594Z,40.88
2022-11-10T18:51:57.357Z,40.52
2022-11-10T18:54:24.181Z,39.90
2022-11-10T18:56:50.974Z,39.99
2022-11-10T18:59:17.725Z,40.08
2022-11-10T19:01:44.691Z,39.94
2022-11-10T19:04:11.617Z,39.81
2022-11-10T19:06:38.482Z,39.75
2022-11-10T19:09:05.289Z,39.64
2022-11-10T19:11:32.119Z,41.00
2022-11-10T19:14:00.678Z,44.16
2022-11-10T19:16:27.452Z,46.84
2022-11-10T19:18:54.475Z,44.24
2022-11-10T19:21:21.247Z,42.09
2022-11-10T19:23:48.059Z,40.74
2022-11-10T19:26:20.915Z,40.80
2022-11-10T19:28:49.175Z,40.64
2022-11-10T19:31:15.982Z,40.36
2022-11-10T19:33:42.814Z,39.79
2022-11-10T19:36:09.583Z,39.52
2022-11-10T19:38:36.427Z,39.50
2022-11-10T19:41:03.425Z,39.88
2022-11-10T19:43:30.724Z,39.70
2022-11-10T19:45:57.504Z,42.14
2022-11-10T19:48:24.283Z,45.40
2022-11-10T19:50:51.057Z,46.99
2022-11-10T19:53:17.810Z,42.59
2022-11-10T19:55:44.569Z,41.47
2022-11-10T19:58:11.317Z,40.38
2022-11-10T20:00:38.070Z,39.99
2022-11-10T20:03:11.220Z,40.05
2022-11-10T20:05:39.724Z,39.81
2022-11-10T20:08:12.532Z,39.62
2022-11-10T20:10:39.330Z,39.81
2022-11-10T20:13:06.139Z,39.27
2022-11-10T20:15:32.909Z,39.43
2022-11-10T20:17:59.718Z,43.57
2022-11-10T20:20:26.489Z,47.20
2022-11-10T20:22:53.339Z,43.81
2022-11-10T20:25:20.096Z,41.42
2022-11-10T20:27:46.947Z,40.50
2022-11-10T20:30:13.709Z,40.62
2022-11-10T20:32:40.457Z,40.07
2022-11-10T20:35:07.233Z,39.85
2022-11-10T20:37:34.050Z,39.52
2022-11-10T20:40:01.020Z,39.46
2022-11-10T20:42:29.193Z,39.46
2022-11-10T20:44:55.961Z,39.45
2022-11-10T20:47:22.887Z,39.32
2022-11-10T20:49:49.725Z,40.65
2022-11-10T20:52:16.477Z,43.93
2022-11-10T20:54:44.284Z,45.93
2022-11-10T20:57:11.052Z,44.31
2022-11-10T20:59:37.851Z,42.20
2022-11-10T21:02:04.647Z,41.06
2022-11-10T21:04:31.512Z,40.90
2022-11-10T21:06:58.290Z,39.81
2022-11-10T21:09:26.061Z,39.96
2022-11-10T21:12:11.475Z,39.64
2022-11-10T21:14:38.231Z,39.82
2022-11-10T21:17:04.980Z,39.27
2022-11-10T21:19:31.771Z,39.25
2022-11-10T21:21:58.623Z,39.38
2022-11-10T21:24:27.896Z,39.52
2022-11-10T21:26:54.792Z,43.81
2022-11-10T21:29:21.607Z,46.62
2022-11-10T21:31:48.404Z,43.84
2022-11-10T21:34:15.184Z,41.57
2022-11-10T21:36:42.011Z,40.36
2022-11-10T21:39:08.756Z,40.53
2022-11-10T21:41:35.686Z,39.98
2022-11-10T21:44:02.501Z,39.68
2022-11-10T21:46:29.343Z,39.65
2022-11-10T21:48:56.118Z,39.49
2022-11-10T21:51:22.914Z,39.00
2022-11-10T21:53:49.666Z,39.11
2022-11-10T21:56:16.474Z,39.10
2022-11-10T21:58:43.273Z,42.59
2022-11-10T22:01:10.122Z,44.17
2022-11-10T22:03:36.978Z,47.44
2022-11-10T22:06:03.872Z,43.59
2022-11-10T22:08:30.643Z,41.83
2022-11-10T22:11:15.880Z,40.48
2022-11-10T22:14:01.268Z,40.36
2022-11-10T22:16:46.652Z,39.94
2022-11-10T22:19:13.608Z,39.80
2022-11-10T22:21:40.359Z,39.64
2022-11-10T22:24:25.736Z,39.43
2022-11-10T22:26:52.504Z,39.28
2022-11-10T22:29:19.247Z,39.48
2022-11-10T22:31:46.038Z,39.13
2022-11-10T22:34:12.815Z,38.93
2022-11-10T22:36:39.588Z,42.58
2022-11-10T22:39:06.428Z,43.65
2022-11-10T22:41:51.835Z,47.53
2022-11-10T22:44:19.465Z,43.43
2022-11-10T22:46:52.002Z,41.70
2022-11-10T22:49:18.766Z,40.67
2022-11-10T22:51:45.535Z,40.54
2022-11-10T22:54:12.297Z,39.99
2022-11-10T22:56:39.265Z,39.90
2022-11-10T22:59:06.075Z,39.74
2022-11-10T23:01:32.909Z,39.10
2022-11-10T23:03:59.720Z,39.42
2022-11-10T23:06:26.551Z,38.87
2022-11-10T23:08:53.321Z,39.33
2022-11-10T23:11:20.196Z,39.06
2022-11-10T23:13:47.014Z,38.86
2022-11-10T23:16:13.772Z,42.72
2022-11-10T23:18:40.598Z,44.87
2022-11-10T23:21:07.398Z,46.53
2022-11-10T23:23:34.140Z,42.14
2022-11-10T23:26:00.883Z,40.72
2022-11-10T23:28:27.796Z,40.09
2022-11-10T23:30:54.572Z,40.32
2022-11-10T23:33:21.571Z,39.55
2022-11-10T23:35:48.916Z,39.15
2022-11-10T23:38:16.215Z,39.44
2022-11-10T23:40:42.997Z,39.08
2022-11-10T23:43:09.818Z,39.04
2022-11-10T23:46:04.888Z,38.76
2022-11-10T23:48:23.643Z,38.61
2022-11-10T23:50:50.626Z,41.34
2022-11-10T23:53:17.393Z,44.31
2022-11-10T23:55:44.208Z,46.38
2022-11-10T23:58:10.978Z,43.36
